Flight Track Log - Related Links

Times and Time Zones

All times are in EDT time to prevent confusion due to time zone crossing. See the UAL6136 flight status page for this flight to view local times or setup timezone preferences in your user account.

Time Position Orientation Groundspeed Altitude Reporting Facility
EDT Latitude Longitude Course Direction KTS MPH feet Rate Location/Type
Thu 10:16:14 PM 41.9320 -87.9240 224° Southwest 187 215 1,900  Level FlightAware ADS-B
Thu 10:16:44 PM 41.9120 -87.9480 222° Southwest 206 237 3,300 2,836 Climbing FlightAware ADS-B
Thu 10:17:09 PM 41.8900 -87.9680 214° Southwest 233 268 4,500 2,743 Climbing FlightAware ADS-B
Thu 10:17:19 PM 41.8790 -87.9700 188° South 244 281 4,900 3,000 Climbing FlightAware ADS-B
Thu 10:17:39 PM 41.8550 -87.9680 176° South 259 298 6,000 2,800 Climbing FlightAware ADS-B
Thu 10:18:04 PM 41.8240 -87.9650 176° South 284 327 7,000 2,727 Climbing FlightAware ADS-B
Thu 10:18:34 PM 41.7870 -87.9710 187° South 293 337 8,500 3,120 Climbing FlightAware ADS-B
Thu 10:19:19 PM 41.7240 -87.9800 186° South 309 356 10,900 2,894 Climbing FlightAware ADS-B
Thu 10:19:59 PM 41.6650 -87.9890 187° South 331 381 12,600 2,400 Climbing FlightAware ADS-B
Thu 10:20:39 PM 41.6030 -87.9990 187° South 359 413 14,100 2,682 Climbing FlightAware ADS-B
Thu 10:21:24 PM 41.5240 -88.0120 187° South 370 426 16,400 2,894 Climbing FlightAware ADS-B
Thu 10:22:04 PM 41.4550 -88.0220 186° South 381 438 18,200 2,550 Climbing FlightAware ADS-B
Thu 10:22:44 PM 41.3840 -88.0370 189° South 384 442 19,800 2,188 Climbing FlightAware ADS-B
Thu 10:23:29 PM 41.3100 -88.0740 201° Southwest 391 450 21,300 2,047 Climbing FlightAware ADS-B
Thu 10:24:09 PM 41.2430 -88.1160 205° Southwest 402 463 22,700 2,118 Climbing FlightAware ADS-B
Thu 10:24:54 PM 41.1680 -88.1630 205° Southwest 409 471 24,300 1,976 Climbing FlightAware ADS-B
Thu 10:25:34 PM 41.0970 -88.2080 206° Southwest 418 481 25,500 1,725 Climbing FlightAware ADS-B
Thu 10:26:14 PM 41.0300 -88.2500 205° Southwest 425 489 26,600 1,694 Climbing FlightAware ADS-B
Thu 10:26:59 PM 40.9450 -88.3020 205° Southwest 432 497 27,900 1,624 Climbing FlightAware ADS-B
Thu 10:27:39 PM 40.8740 -88.3470 206° Southwest 437 503 28,900 1,341 Climbing FlightAware ADS-B
Thu 10:28:24 PM 40.7930 -88.3970 205° Southwest 445 512 29,800 1,482 Climbing FlightAware ADS-B
Thu 10:29:04 PM 40.7170 -88.4430 205° Southwest 441 507 31,000 1,971 Climbing FlightAware ADS-B
Thu 10:29:34 PM 40.6590 -88.4790 205° Southwest 436 502 32,100 1,800 Climbing FlightAware ADS-B
Thu 10:30:14 PM 40.5900 -88.5220 205° Southwest 430 495 33,100 1,624 Climbing FlightAware ADS-B
Thu 10:30:59 PM 40.5060 -88.5740 205° Southwest 423 487 34,400 1,553 Climbing FlightAware ADS-B
Thu 10:31:39 PM 40.4350 -88.6170 205° Southwest 420 483 35,300 1,125 Climbing FlightAware ADS-B
Thu 10:32:19 PM 40.3640 -88.6610 205° Southwest 423 487 35,900 494 Climbing FlightAware ADS-B
Thu 10:33:04 PM 40.2850 -88.7090 205° Southwest 426 490 36,000 71 Climbing FlightAware ADS-B
Thu 10:33:44 PM 40.2110 -88.7540 205° Southwest 424 488 36,000  Level FlightAware ADS-B
Thu 10:34:29 PM 40.1360 -88.7990 205° Southwest 421 484 36,000  Level FlightAware ADS-B
Thu 10:35:09 PM 40.0600 -88.8450 205° Southwest 432 497 36,000  Level FlightAware ADS-B
Thu 10:35:49 PM 39.9890 -88.8880 205° Southwest 436 502 36,000  Level FlightAware ADS-B
Thu 10:36:34 PM 39.9060 -88.9380 205° Southwest 437 503 36,000  Level FlightAware ADS-B
Thu 10:37:14 PM 39.8310 -88.9830 205° Southwest 438 504 36,000  Level FlightAware ADS-B
Thu 10:37:59 PM 39.7490 -89.0320 205° Southwest 439 505 36,000  Level FlightAware ADS-B
Thu 10:38:39 PM 39.6730 -89.0780 205° Southwest 439 505 36,000  Level FlightAware ADS-B
Thu 10:39:24 PM 39.5910 -89.1260 204° Southwest 438 504 36,000  Level FlightAware ADS-B
Thu 10:40:04 PM 39.5230 -89.1670 205° Southwest 438 504 36,000  Level FlightAware ADS-B
Thu 10:40:44 PM 39.4480 -89.2110 204° Southwest 438 504 36,000  Level FlightAware ADS-B
Thu 10:41:29 PM 39.3650 -89.2600 205° Southwest 438 504 36,000  Level FlightAware ADS-B
Thu 10:42:09 PM 39.2900 -89.3040 204° Southwest 438 504 36,000  Level FlightAware ADS-B
Thu 10:42:49 PM 39.2170 -89.3480 205° Southwest 438 504 36,000  Level FlightAware ADS-B
Thu 10:43:34 PM 39.1290 -89.3990 204° Southwest 439 505 36,000  Level FlightAware ADS-B
Thu 10:44:09 PM 39.0680 -89.4350 205° Southwest 438 504 36,000  Level FlightAware ADS-B
Thu 10:44:59 PM 38.9740 -89.4900 204° Southwest 439 505 36,000  Level FlightAware ADS-B
Thu 10:45:34 PM 38.9080 -89.5280 204° Southwest 439 505 36,000  Level FlightAware ADS-B
Thu 10:46:34 PM 38.8020 -89.5900 205° Southwest 439 505 36,000  Level FlightAware ADS-B
Thu 10:47:09 PM 38.7350 -89.6290 204° Southwest 439 505 36,000  Level FlightAware ADS-B
Thu 10:47:59 PM 38.6410 -89.6830 204° Southwest 439 505 36,000  Level FlightAware ADS-B
Thu 10:48:34 PM 38.5780 -89.7200 205° Southwest 437 503 36,000  Level FlightAware ADS-B
Thu 10:49:24 PM 38.4830 -89.7740 204° Southwest 437 503 36,000  Level FlightAware ADS-B
Thu 10:50:04 PM 38.4110 -89.8160 205° Southwest 439 505 36,000  Level FlightAware ADS-B
Thu 10:50:44 PM 38.3410 -89.8560 204° Southwest 441 507 36,000  Level FlightAware ADS-B
Thu 10:51:29 PM 38.2530 -89.9060 204° Southwest 444 511 36,000  Level FlightAware ADS-B
Thu 10:52:14 PM 38.1750 -89.9510 204° Southwest 444 511 36,000  Level FlightAware ADS-B
Thu 10:52:54 PM 38.1110 -89.9870 204° Southwest 444 511 36,000  Level FlightAware ADS-B
Thu 10:53:34 PM 38.0470 -90.0230 204° Southwest 444 511 36,000  Level FlightAware ADS-B
Thu 10:54:14 PM 37.9830 -90.0590 204° Southwest 444 511 36,000  Level FlightAware ADS-B
Thu 10:54:54 PM 37.9190 -90.0950 204° Southwest 444 511 36,000  Level FlightAware ADS-B
Thu 10:55:34 PM 37.8560 -90.1310 204° Southwest 444 511 36,000  Level FlightAware ADS-B
Thu 10:56:24 PM 37.7760 -90.1760 204° Southwest 444 511 36,000  Level FlightAware ADS-B
Thu 10:57:04 PM 37.7120 -90.2120 204° Southwest 444 511 36,000  Level FlightAware ADS-B
Thu 10:57:44 PM 37.6480 -90.2480 204° Southwest 444 511 36,000  Level FlightAware ADS-B
Thu 10:58:24 PM 37.5840 -90.2840 204° Southwest 444 511 36,000  Level FlightAware ADS-B
Thu 10:59:14 PM 37.5050 -90.3280 204° Southwest 444 511 36,000  Level FlightAware ADS-B
Thu 10:59:54 PM 37.4410 -90.3640 204° Southwest 444 511 36,000  Level FlightAware ADS-B
Thu 11:00:34 PM 37.3770 -90.4000 204° Southwest 444 511 36,000  Level FlightAware ADS-B
Thu 11:01:14 PM 37.3130 -90.4360 204° Southwest 444 511 36,000  Level FlightAware ADS-B
Thu 11:01:45 PM 37.1422 -90.5989 204° Southwest 427 491 36,000  Level Memphis Center
Thu 11:02:45 PM 37.0442 -90.6636 208° Southwest 416 479 36,000  Level Memphis Center
Thu 11:03:45 PM 36.9439 -90.7308 208° Southwest 411 473 36,000  Level Memphis Center
Thu 11:04:45 PM 36.8436 -90.7950 207° Southwest 411 473 36,000  Level Memphis Center
Thu 11:05:45 PM 36.7331 -90.8411 198° South 416 479 36,000  Level Memphis Center
Thu 11:06:45 PM 36.6225 -90.8869 198° South 422 486 36,000  Level Memphis Center
Thu 11:07:45 PM 36.5117 -90.9328 198° South 427 491 36,000  Level Memphis Center
Thu 11:08:45 PM 36.3989 -90.9758 197° South 427 491 36,000  Level Memphis Center
Thu 11:09:45 PM 36.2883 -91.0211 198° South 427 491 36,000  Level Memphis Center
Thu 11:10:45 PM 36.1753 -91.0667 198° South 427 491 36,000  Level Memphis Center
Thu 11:11:45 PM 36.0647 -91.1119 198° South 427 491 36,000  Level Memphis Center
Thu 11:12:45 PM 35.9539 -91.1544 197° South 427 491 36,000  Level Memphis Center
Thu 11:13:45 PM 35.8431 -91.1969 197° South 427 491 36,000  Level Memphis Center
Thu 11:14:45 PM 35.7344 -91.2394 198° South 427 491 36,000  Level Memphis Center
Thu 11:15:45 PM 35.6317 -91.2867 200° South 407 468 36,000  Level Memphis Center
Thu 11:16:45 PM 35.5250 -91.3289 198° South 407 468 36,000  Level Memphis Center
Thu 11:17:45 PM 35.4267 -91.3686 198° South 407 468 36,000  Level Memphis Center
Thu 11:18:45 PM 35.3097 -91.4106 196° South 407 468 36,000  Level Memphis Center
Thu 11:19:45 PM 35.2008 -91.4547 198° South 407 468 36,000  Level Memphis Center
Thu 11:20:45 PM 35.0939 -91.4942 197° South 407 468 36,000  Level Memphis Center
Thu 11:21:45 PM 34.9831 -91.5383 198° South 407 468 36,000  Level Memphis Center
Thu 11:22:45 PM 34.8992 -91.5700 197° South 407 468 36,000  Level Memphis Center
Thu 11:23:45 PM 34.7819 -91.6239 201° Southwest 412 474 36,000  Level Memphis Center
Thu 11:24:45 PM 34.6708 -91.6678 198° South 412 474 36,000  Level Memphis Center
Thu 11:25:45 PM 34.5514 -91.7139 198° South 418 481 36,000  Level Memphis Center
Thu 11:26:45 PM 34.4364 -91.7497 194° South 418 481 36,000  Level Memphis Center
Thu 11:27:45 PM 34.3253 -91.7958 199° South 424 488 36,000  Level Memphis Center
Thu 11:28:45 PM 34.2161 -91.8367 197° South 424 488 36,000  Level Memphis Center
Thu 11:29:45 PM 34.1072 -91.8800 198° South 424 488 36,000  Level Memphis Center
Thu 11:31:30 PM 33.9269 -91.9469 197° South 396 456 36,000  Level Fort Worth Center
Thu 11:32:30 PM 33.8164 -91.9914 198° South 409 471 36,000  Level Fort Worth Center
Thu 11:33:30 PM 33.7011 -92.0333 197° South 425 489 36,000  Level Fort Worth Center
Thu 11:34:30 PM 33.5903 -92.0750 197° South 430 495 36,000  Level Fort Worth Center
Thu 11:35:30 PM 33.4733 -92.1194 198° South 430 495 36,000  Level Fort Worth Center
Thu 11:36:30 PM 33.3603 -92.1611 197° South 430 495 36,000  Level Fort Worth Center
Thu 11:37:30 PM 33.2453 -92.2053 198° South 430 495 36,000  Level Fort Worth Center
Thu 11:38:30 PM 33.1261 -92.2494 197° South 437 503 36,000  Level Fort Worth Center
Thu 11:44:36 PM 32.4064 -92.5183 197° South 433 498 36,000  Level FlightAware ADS-B
Thu 11:46:35 PM 32.1777 -92.6024 197° South 435 501 36,000  Level FlightAware ADS-B
Thu 11:52:29 PM 31.6074 -93.0311 213° Southwest 413 475 36,000  Level FlightAware ADS-B
Thu 11:53:00 PM 31.5610 -93.0758 219° Southwest 413 475 36,000  Level FlightAware ADS-B
Thu 11:53:31 PM 31.5164 -93.1188 219° Southwest 412 474 36,000  Level FlightAware ADS-B
Thu 11:54:07 PM 31.4635 -93.1696 219° Southwest 413 475 36,000  Level FlightAware ADS-B
Thu 11:54:37 PM 31.4189 -93.2122 219° Southwest 412 474 36,000  Level FlightAware ADS-B
Thu 11:55:08 PM 31.3735 -93.2557 219° Southwest 412 474 36,000  Level FlightAware ADS-B
Thu 11:55:38 PM 31.3288 -93.2983 219° Southwest 412 474 36,000  Level FlightAware ADS-B
Thu 11:56:08 PM 31.2839 -93.3412 219° Southwest 413 475 36,000  Level FlightAware ADS-B
Thu 11:56:41 PM 31.2354 -93.3877 219° Southwest 414 476 36,000  Level FlightAware ADS-B
Thu 11:57:11 PM 31.1900 -93.4308 219° Southwest 416 479 36,000  Level FlightAware ADS-B
Thu 11:57:42 PM 31.1443 -93.4742 219° Southwest 417 480 36,000  Level FlightAware ADS-B
Thu 11:58:12 PM 31.0991 -93.5171 219° Southwest 417 480 36,000  Level FlightAware ADS-B
Thu 11:58:43 PM 31.0532 -93.5608 219° Southwest 418 481 36,000  Level FlightAware ADS-B
Thu 11:59:13 PM 31.0081 -93.6037 219° Southwest 419 482 36,000 -200 Level FlightAware ADS-B
Thu 11:59:43 PM 30.9629 -93.6463 219° Southwest 418 481 35,800 -984 Descending FlightAware ADS-B
Fri 12:00:14 AM 30.9166 -93.6899 219° Southwest 413 475 35,000 -2,262 Descending FlightAware ADS-B
Fri 12:00:44 AM 30.8721 -93.7319 219° Southwest 414 476 33,500 -3,300 Descending FlightAware ADS-B
Fri 12:01:14 AM 30.8268 -93.7747 219° Southwest 424 488 31,700 -3,700 Descending FlightAware ADS-B
Fri 12:01:44 AM 30.7805 -93.8183 219° Southwest 432 497 29,800 -3,836 Descending FlightAware ADS-B
Fri 12:02:15 AM 30.7325 -93.8633 219° Southwest 439 505 27,800 -4,000 Descending FlightAware ADS-B
Fri 12:02:20 AM 30.7240 -93.8714 219° Southwest 439 505 27,400 -4,000 Descending FlightAware ADS-B
Fri 12:02:45 AM 30.6836 -93.9094 219° Southwest 443 510 25,800 -3,632 Descending FlightAware ADS-B
Fri 12:02:58 AM 30.6640 -93.9278 219° Southwest 442 509 25,100 -3,097 Descending FlightAware ADS-B
Fri 12:03:16 AM 30.6355 -93.9544 219° Southwest 437 503 24,200 -2,903 Descending FlightAware ADS-B
Fri 12:03:29 AM 30.6141 -93.9744 219° Southwest 439 505 23,600 -2,903 Descending FlightAware ADS-B
Fri 12:03:47 AM 30.5874 -93.9996 219° Southwest 437 503 22,700 -2,923 Descending FlightAware ADS-B
Fri 12:04:08 AM 30.5540 -94.0310 219° Southwest 437 503 21,700 -2,800 Descending FlightAware ADS-B
Fri 12:04:17 AM 30.5400 -94.0440 219° Southwest 434 499 21,300 -2,923 Descending FlightAware ADS-B
Fri 12:04:47 AM 30.4932 -94.0877 219° Southwest 429 494 19,800 -3,000 Descending FlightAware ADS-B
Fri 12:04:55 AM 30.4802 -94.0997 219° Southwest 427 491 19,400 -2,800 Descending FlightAware ADS-B
Fri 12:05:17 AM 30.4472 -94.1304 219° Southwest 422 486 18,400 -2,936 Descending FlightAware ADS-B
Fri 12:05:42 AM 30.4085 -94.1666 219° Southwest 417 480 17,100 -3,000 Descending FlightAware ADS-B
Fri 12:05:47 AM 30.4017 -94.1729 219° Southwest 416 479 16,900 -3,086 Descending FlightAware ADS-B
Fri 12:06:17 AM 30.3568 -94.2148 219° Southwest 413 475 15,300 -3,200 Descending FlightAware ADS-B
Fri 12:06:47 AM 30.3123 -94.2562 219° Southwest 409 471 13,700 -3,081 Descending FlightAware ADS-B
Fri 12:06:54 AM 30.3026 -94.2652 219° Southwest 408 470 13,400 -2,600 Descending FlightAware ADS-B
Fri 12:07:17 AM 30.2683 -94.2970 219° Southwest 394 453 12,400 -2,129 Descending FlightAware ADS-B
Fri 12:07:25 AM 30.2581 -94.3064 219° Southwest 379 436 12,300 -774 Descending FlightAware ADS-B
Fri 12:07:48 AM 30.2281 -94.3341 219° Southwest 354 407 12,000 -857 Descending FlightAware ADS-B
Fri 12:08:00 AM 30.2131 -94.3483 219° Southwest 343 395 11,800 -1,200 Descending FlightAware ADS-B
Fri 12:08:03 AM 30.2097 -94.3523 225° Southwest 347 399 11,700 -1,200 Descending FlightAware ADS-B
Fri 12:08:05 AM 30.2075 -94.3551 228° Southwest 338 389 11,700  Level FlightAware ADS-B
Fri 12:08:09 AM 30.2033 -94.3616 233° Southwest 332 382 11,700  Level FlightAware ADS-B
Fri 12:08:13 AM 30.2005 -94.3669 239° Southwest 334 384 11,700  Level FlightAware ADS-B
Fri 12:08:18 AM 30.1969 -94.3755 244° Southwest 328 377 11,700  Level FlightAware ADS-B
Fri 12:08:24 AM 30.1943 -94.3841 251° West 327 376 11,700  Level FlightAware ADS-B
Fri 12:08:31 AM 30.1920 -94.3960 257° West 326 375 11,700  Level FlightAware ADS-B
Fri 12:08:41 AM 30.1885 -94.4140 257° West 326 375 11,700  Level FlightAware ADS-B
Fri 12:08:52 AM 30.1837 -94.4324 253° West 326 375 11,700  Level FlightAware ADS-B
Fri 12:08:59 AM 30.1804 -94.4430 250° West 327 376 11,700 -429 Level FlightAware ADS-B
Fri 12:09:06 AM 30.1762 -94.4546 247° West 326 375 11,600 -1,304 Descending FlightAware ADS-B
Fri 12:09:22 AM 30.1669 -94.4809 248° West 320 368 11,200 -1,333 Descending FlightAware ADS-B
Fri 12:09:42 AM 30.1558 -94.5115 247° West 314 361 10,800 -1,355 Descending FlightAware ADS-B
Fri 12:09:53 AM 30.1500 -94.5276 247° West 309 356 10,500 -1,355 Descending FlightAware ADS-B
Fri 12:10:13 AM 30.1390 -94.5574 247° West 300 345 10,100 -1,071 Descending FlightAware ADS-B
Fri 12:10:21 AM 30.1344 -94.5698 247° West 297 342 10,000 -800 Descending FlightAware ADS-B
Fri 12:10:28 AM 30.1308 -94.5795 247° West 293 337 9,900 -1,125 Descending FlightAware ADS-B
Fri 12:10:37 AM 30.1263 -94.5919 247° West 290 334 9,700 -1,125 Descending FlightAware ADS-B
Fri 12:10:44 AM 30.1225 -94.6023 247° West 288 331 9,600 -1,200 Descending FlightAware ADS-B
Fri 12:10:52 AM 30.1185 -94.6131 247° West 284 327 9,400 -1,412 Descending FlightAware ADS-B
Fri 12:11:01 AM 30.1137 -94.6264 247° West 282 325 9,200 -1,200 Descending FlightAware ADS-B
Fri 12:11:07 AM 30.1109 -94.6341 247° West 280 322 9,100 -1,143 Descending FlightAware ADS-B
Fri 12:11:22 AM 30.1034 -94.6547 247° West 278 320 8,800 -1,333 Descending FlightAware ADS-B
Fri 12:11:25 AM 30.1019 -94.6588 247° West 279 321 8,700 -1,600 Descending FlightAware ADS-B
Fri 12:11:37 AM 30.0958 -94.6754 247° West 280 322 8,400 -1,500 Descending FlightAware ADS-B
Fri 12:11:41 AM 30.0939 -94.6803 246° West 280 322 8,300 -2,000 Descending FlightAware ADS-B
Fri 12:11:46 AM 30.0910 -94.6883 247° West 280 322 8,100 -1,600 Descending FlightAware ADS-B
Fri 12:11:56 AM 30.0863 -94.7009 247° West 279 321 7,900 -1,125 Descending FlightAware ADS-B
Fri 12:12:02 AM 30.0832 -94.7093 247° West 279 321 7,800 -1,200 Descending FlightAware ADS-B
Fri 12:12:11 AM 30.0786 -94.7219 247° West 277 319 7,600 -1,500 Descending FlightAware ADS-B
Fri 12:12:18 AM 30.0750 -94.7315 247° West 276 318 7,400 -1,600 Descending FlightAware ADS-B
Fri 12:12:26 AM 30.0710 -94.7424 247° West 275 316 7,200 -1,385 Descending FlightAware ADS-B
Fri 12:12:31 AM 30.0686 -94.7490 247° West 273 314 7,100 -1,125 Descending FlightAware ADS-B
Fri 12:12:42 AM 30.0634 -94.7632 247° West 272 313 6,900 -1,200 Descending FlightAware ADS-B
Fri 12:12:46 AM 30.0612 -94.7691 247° West 271 312 6,800 -1,263 Descending FlightAware ADS-B
Fri 12:13:01 AM 30.0538 -94.7894 247° West 269 310 6,500 -1,263 Descending FlightAware ADS-B
Fri 12:13:05 AM 30.0521 -94.7941 247° West 269 310 6,400 -1,500 Descending FlightAware ADS-B
Fri 12:13:17 AM 30.0464 -94.8096 247° West 267 307 6,100 -1,263 Descending FlightAware ADS-B
Fri 12:13:24 AM 30.0430 -94.8189 247° West 267 307 6,000 -1,125 Descending FlightAware ADS-B
Fri 12:13:33 AM 30.0387 -94.8308 247° West 266 306 5,800 -1,600 Descending FlightAware ADS-B
Fri 12:13:39 AM 30.0357 -94.8391 247° West 265 305 5,600 -1,200 Descending FlightAware ADS-B
Fri 12:13:48 AM 30.0314 -94.8505 246° West 264 304 5,500 -1,125 Descending FlightAware ADS-B
Fri 12:13:55 AM 30.0284 -94.8588 247° West 264 304 5,300 -1,600 Descending FlightAware ADS-B
Fri 12:14:03 AM 30.0243 -94.8699 247° West 261 300 5,100 -1,200 Descending FlightAware ADS-B
Fri 12:14:10 AM 30.0211 -94.8785 247° West 261 300 5,000 -1,286 Descending FlightAware ADS-B
Fri 12:14:17 AM 30.0177 -94.8876 247° West 260 299 4,800 -1,200 Descending FlightAware ADS-B
Fri 12:14:25 AM 30.0139 -94.8979 247° West 259 298 4,700 -1,200 Descending FlightAware ADS-B
Fri 12:14:32 AM 30.0105 -94.9070 247° West 259 298 4,500 -1,200 Descending FlightAware ADS-B
Fri 12:14:40 AM 30.0068 -94.9172 247° West 257 296 4,400 -923 Descending FlightAware ADS-B
Fri 12:14:45 AM 30.0044 -94.9236 247° West 256 295 4,300 -1,200 Descending FlightAware ADS-B
Fri 12:14:55 AM 29.9999 -94.9359 247° West 252 290 4,100 -750 Descending FlightAware ADS-B
Fri 12:15:01 AM 29.9975 -94.9424 247° West 251 289 4,100 -667 Level FlightAware ADS-B
Fri 12:15:13 AM 29.9921 -94.9573 247° West 247 284 3,900 -1,200 Descending FlightAware ADS-B
Fri 12:15:16 AM 29.9907 -94.9611 247° West 244 281 3,800 -800 Descending FlightAware ADS-B
Fri 12:15:28 AM 29.9855 -94.9753 247° West 241 277 3,700 -375 Descending FlightAware ADS-B
Fri 12:15:32 AM 29.9839 -94.9794 246° West 241 277 3,700  Level FlightAware ADS-B
Fri 12:15:38 AM 29.9812 -94.9872 248° West 238 274 3,700  Level FlightAware ADS-B
Fri 12:15:41 AM 29.9801 -94.9910 252° West 237 273 3,700  Level FlightAware ADS-B
Fri 12:15:44 AM 29.9793 -94.9946 256° West 236 272 3,700  Level FlightAware ADS-B
Fri 12:15:46 AM 29.9789 -94.9965 256° West 236 272 3,700  Level FlightAware ADS-B
Fri 12:15:48 AM 29.9784 -94.9996 259° West 235 270 3,700  Level FlightAware ADS-B
Fri 12:15:51 AM 29.9781 -95.0027 264° West 235 270 3,700  Level FlightAware ADS-B
Fri 12:15:54 AM 29.9777 -95.0070 264° West 233 268 3,700  Level FlightAware ADS-B
Fri 12:15:59 AM 29.9774 -95.0134 267° West 231 266 3,700  Level FlightAware ADS-B
Fri 12:16:06 AM 29.9773 -95.0209 269° West 227 261 3,700  Level FlightAware ADS-B
Fri 12:16:10 AM 29.9773 -95.0256 270° West 225 259 3,700  Level FlightAware ADS-B
Fri 12:16:23 AM 29.9773 -95.0410 270° West 222 255 3,700  Level FlightAware ADS-B
Fri 12:16:25 AM 29.9773 -95.0435 270° West 222 255 3,700  Level FlightAware ADS-B
Fri 12:16:38 AM 29.9774 -95.0588 270° West 216 249 3,700  Level FlightAware ADS-B
Fri 12:16:50 AM 29.9775 -95.0718 271° West 204 235 3,700 -375 Level FlightAware ADS-B
Fri 12:16:54 AM 29.9776 -95.0763 271° West 202 232 3,600 -1,200 Descending FlightAware ADS-B
Fri 12:17:05 AM 29.9775 -95.0879 269° West 202 232 3,400 -1,385 Descending FlightAware ADS-B
Fri 12:17:07 AM 29.9775 -95.0910 270° West 203 234 3,300 -1,500 Descending FlightAware ADS-B
Fri 12:17:17 AM 29.9775 -95.1019 270° West 205 236 3,100 -1,059 Descending FlightAware ADS-B
Fri 12:17:24 AM 29.9775 -95.1089 270° West 205 236 3,000 -750 Descending FlightAware ADS-B
Fri 12:17:33 AM 29.9775 -95.1185 270° West 202 232 2,900 -800 Descending FlightAware ADS-B
Fri 12:17:39 AM 29.9775 -95.1255 270° West 201 231 2,800 -667 Descending FlightAware ADS-B
Fri 12:17:42 AM 29.9775 -95.1289 270° West 201 231 2,800 -1,059 Level FlightAware ADS-B
Fri 12:17:56 AM 29.9775 -95.1431 270° West 200 230 2,500 -1,059 Descending FlightAware ADS-B
Fri 12:17:59 AM 29.9775 -95.1464 270° West 201 231 2,500 -1,059 Level FlightAware ADS-B
Fri 12:18:13 AM 29.9775 -95.1613 270° West 204 235 2,200 -1,241 Descending FlightAware ADS-B
Fri 12:18:28 AM 29.9775 -95.1786 270° West 206 237 1,900 -1,125 Descending FlightAware ADS-B
Fri 12:18:29 AM 29.9775 -95.1790 270° West 206 237 1,900 -960 Level FlightAware ADS-B
Fri 12:18:53 AM 29.9776 -95.2055 270° West 208 239 1,500 -1,077 Descending FlightAware ADS-B
Fri 12:19:08 AM 29.9776 -95.2218 270° West 201 231 1,200 -1,200 Descending FlightAware ADS-B
Fri 12:19:23 AM 29.9776 -95.2374 270° West 187 215 900 -1,000 Descending FlightAware ADS-B
Fri 12:19:38 AM 29.9776 -95.2517 270° West 172 198 700 -968 Descending FlightAware ADS-B
Fri 12:19:54 AM 29.9776 -95.2652 270° West 161 185 400 -1,043 Descending FlightAware ADS-B
Fri 12:20:01 AM 29.9776 -95.2710 270° West 158 182 300 -706 Descending FlightAware ADS-B
Fri 12:20:11 AM 29.9777 -95.2794 271° West 155 178 200 -600 Descending FlightAware ADS-B
Fri 12:20:24 AM 29.9776 -95.2899 269° West 154 177 -923 Descending FlightAware ADS-B
Fri 12:28:00 AM 29.9833 -95.3333 203° Southwest  Level FlightAware Approximate

Login

Don't have an account? Register now (free) for customized features, flight alerts, and more!